createdAt,value
2017-07-04T00:01:12.677Z,58.11
2017-07-04T00:03:53.188Z,58.05
2017-07-04T00:06:36.507Z,57.93
2017-07-04T00:09:17.850Z,57.98
2017-07-04T00:11:59.735Z,59.05
2017-07-04T00:14:41.210Z,58.51
2017-07-04T00:17:27.385Z,58.49
2017-07-04T00:20:08.944Z,57.50
2017-07-04T00:22:52.471Z,57.42
2017-07-04T00:25:34.710Z,58.06
2017-07-04T00:28:16.534Z,58.68
2017-07-04T00:30:58.959Z,59.63
2017-07-04T00:33:40.517Z,60.56
2017-07-04T00:36:21.492Z,61.96
2017-07-04T00:39:02.831Z,62.62
2017-07-04T00:41:44.050Z,62.68
2017-07-04T00:44:26.676Z,63.14
2017-07-04T00:47:07.407Z,63.54
2017-07-04T00:49:50.036Z,64.03
2017-07-04T00:52:35.008Z,64.59
2017-07-04T00:55:16.600Z,64.85
2017-07-04T00:57:56.341Z,64.88
2017-07-04T01:00:37.010Z,65.06
2017-07-04T01:03:18.088Z,65.22
2017-07-04T01:05:58.269Z,65.87
2017-07-04T01:08:39.209Z,66.14
2017-07-04T01:11:20.188Z,67.02
2017-07-04T01:14:01.257Z,66.69
2017-07-04T01:16:46.008Z,67.32
2017-07-04T01:19:25.585Z,66.98
2017-07-04T01:22:04.879Z,66.77
2017-07-04T01:24:37.359Z,67.24
2017-07-04T01:27:07.086Z,67.87
2017-07-04T01:29:36.768Z,67.22
2017-07-04T01:32:10.050Z,67.08
2017-07-04T01:34:52.047Z,68.02
2017-07-04T01:37:31.193Z,67.87
2017-07-04T01:40:06.745Z,67.87
2017-07-04T01:42:44.589Z,68.10
2017-07-04T01:45:23.955Z,67.67
2017-07-04T01:48:02.767Z,67.94
2017-07-04T01:50:42.945Z,68.26
2017-07-04T01:53:23.512Z,68.54
2017-07-04T01:56:03.913Z,68.70
2017-07-04T01:58:40.086Z,68.92
2017-07-04T02:01:19.304Z,68.46
2017-07-04T02:04:00.497Z,68.55
2017-07-04T02:06:40.130Z,68.73
2017-07-04T02:09:14.451Z,68.55
2017-07-04T02:11:51.022Z,68.39
2017-07-04T02:14:29.014Z,68.76
2017-07-04T02:17:10.207Z,68.94
2017-07-04T02:19:52.218Z,68.84
2017-07-04T02:22:31.729Z,68.85
2017-07-04T02:25:12.821Z,68.67
2017-07-04T02:27:53.955Z,69.22
2017-07-04T02:30:35.131Z,68.67
2017-07-04T02:33:14.819Z,68.11
2017-07-04T02:35:56.754Z,69.24
2017-07-04T02:38:35.321Z,69.17
2017-07-04T02:41:16.103Z,69.70
2017-07-04T02:43:56.468Z,70.02
2017-07-04T02:46:37.559Z,69.97
2017-07-04T02:49:18.804Z,69.97
2017-07-04T02:51:59.613Z,69.46
2017-07-04T02:54:39.473Z,69.68
2017-07-04T02:57:19.471Z,69.26
2017-07-04T02:59:59.821Z,69.39
2017-07-04T03:02:40.977Z,69.56
2017-07-04T03:05:23.087Z,69.37
2017-07-04T03:08:05.391Z,69.67
2017-07-04T03:10:45.084Z,69.35
2017-07-04T03:13:25.948Z,69.45
2017-07-04T03:16:07.290Z,68.92
2017-07-04T03:18:46.582Z,69.30
2017-07-04T03:21:24.665Z,69.05
2017-07-04T03:24:06.677Z,69.26
2017-07-04T03:26:47.059Z,69.43
2017-07-04T03:29:28.267Z,69.53
2017-07-04T03:32:09.459Z,69.17
2017-07-04T03:34:48.733Z,69.42
2017-07-04T03:37:26.747Z,68.81
2017-07-04T03:40:08.115Z,68.94
2017-07-04T03:42:49.667Z,69.11
2017-07-04T03:45:30.443Z,69.52
2017-07-04T03:48:11.378Z,69.48
2017-07-04T03:50:52.568Z,69.71
2017-07-04T03:53:33.435Z,70.49
2017-07-04T03:56:14.057Z,70.83
2017-07-04T03:58:54.135Z,70.63
2017-07-04T04:01:34.537Z,70.00
2017-07-04T04:04:15.236Z,69.48
2017-07-04T04:06:55.992Z,69.23
2017-07-04T04:09:35.733Z,69.14
2017-07-04T04:12:16.038Z,68.83
2017-07-04T04:14:57.663Z,68.68
2017-07-04T04:17:39.220Z,68.39
2017-07-04T04:20:19.842Z,68.13
2017-07-04T04:23:00.083Z,68.46
2017-07-04T04:25:39.243Z,68.41
2017-07-04T04:28:17.230Z,67.59
2017-07-04T04:30:54.406Z,66.90
2017-07-04T04:33:33.818Z,67.09
2017-07-04T04:36:13.783Z,67.08
2017-07-04T04:38:53.008Z,66.80
2017-07-04T04:41:31.030Z,66.71
2017-07-04T04:44:12.478Z,66.51
2017-07-04T04:46:51.917Z,66.63
2017-07-04T04:49:31.332Z,66.36
2017-07-04T04:52:12.277Z,66.05
2017-07-04T04:54:53.321Z,65.19
2017-07-04T04:57:33.702Z,64.79
2017-07-04T05:00:13.576Z,65.92
2017-07-04T05:02:54.731Z,64.87
2017-07-04T05:05:36.314Z,64.19
2017-07-04T05:08:16.245Z,63.25
2017-07-04T05:10:52.260Z,63.38
2017-07-04T05:13:30.365Z,63.04
2017-07-04T05:16:10.709Z,64.03
2017-07-04T05:18:50.930Z,64.33
2017-07-04T05:21:32.011Z,64.70
2017-07-04T05:24:12.607Z,63.64
2017-07-04T05:26:53.151Z,64.24
2017-07-04T05:29:33.422Z,63.97
2017-07-04T05:32:15.101Z,63.41
2017-07-04T05:34:56.341Z,64.18
2017-07-04T05:37:37.764Z,64.39
2017-07-04T05:40:18.210Z,64.25
2017-07-04T05:42:59.491Z,64.08
2017-07-04T05:45:41.146Z,63.73
2017-07-04T05:48:22.068Z,64.30
2017-07-04T05:51:00.492Z,64.28
2017-07-04T05:53:41.890Z,64.54
2017-07-04T05:56:22.657Z,64.64
2017-07-04T05:59:04.970Z,63.84
2017-07-04T06:01:43.836Z,62.60
2017-07-04T06:04:25.289Z,62.83
2017-07-04T06:07:06.307Z,62.80
2017-07-04T06:09:47.327Z,62.79
2017-07-04T06:12:27.054Z,62.84
2017-07-04T06:14:59.482Z,62.56
2017-07-04T06:17:29.895Z,61.25
2017-07-04T06:19:59.619Z,60.80
2017-07-04T06:22:29.921Z,60.50
2017-07-04T06:24:59.734Z,60.10
2017-07-04T06:27:29.391Z,59.51
2017-07-04T06:29:59.058Z,59.86
2017-07-04T06:32:28.818Z,59.23
2017-07-04T06:35:06.811Z,58.70
2017-07-04T06:37:38.143Z,58.83
2017-07-04T06:40:08.594Z,59.40
2017-07-04T06:42:38.331Z,57.93
2017-07-04T06:45:08.810Z,57.62
2017-07-04T06:47:38.736Z,58.21
2017-07-04T06:50:08.506Z,58.33
2017-07-04T06:52:38.272Z,58.34
2017-07-04T06:55:08.018Z,58.49
2017-07-04T06:57:37.707Z,58.19
2017-07-04T07:00:07.372Z,58.31
2017-07-04T07:02:37.228Z,58.34
2017-07-04T07:05:07.254Z,58.28
2017-07-04T07:07:36.982Z,58.03
2017-07-04T07:10:06.713Z,58.37
2017-07-04T07:12:36.521Z,57.04
2017-07-04T07:15:06.241Z,57.03
2017-07-04T07:17:35.197Z,56.48
2017-07-04T07:20:04.938Z,56.75
2017-07-04T07:22:34.652Z,56.39
2017-07-04T07:25:04.387Z,55.65
2017-07-04T07:27:34.385Z,53.84
2017-07-04T07:30:04.077Z,54.42
2017-07-04T07:32:33.791Z,53.41
2017-07-04T07:35:04.047Z,52.87
2017-07-04T07:37:33.711Z,52.12
2017-07-04T07:40:03.433Z,51.94
2017-07-04T07:42:33.153Z,51.92
2017-07-04T07:45:02.823Z,51.12
2017-07-04T07:47:32.514Z,51.58
2017-07-04T07:50:02.254Z,52.25
2017-07-04T07:52:31.675Z,52.65
2017-07-04T07:55:01.456Z,52.52
2017-07-04T07:57:31.256Z,51.74
2017-07-04T08:00:00.981Z,51.67
2017-07-04T08:02:30.686Z,51.90
2017-07-04T08:05:00.462Z,52.17
2017-07-04T08:07:30.812Z,52.89
2017-07-04T08:10:00.730Z,53.90
2017-07-04T08:12:30.478Z,53.76
2017-07-04T08:15:00.261Z,53.25
2017-07-04T08:17:30.027Z,52.22
2017-07-04T08:19:59.806Z,52.59
2017-07-04T08:22:30.142Z,52.52
2017-07-04T08:24:59.863Z,52.78
2017-07-04T08:27:29.530Z,53.13
2017-07-04T08:29:59.986Z,54.17
2017-07-04T08:32:29.694Z,53.38
2017-07-04T08:34:59.434Z,53.21
2017-07-04T08:37:29.455Z,53.13
2017-07-04T08:39:59.114Z,52.39
2017-07-04T08:42:29.467Z,51.16
2017-07-04T08:44:59.187Z,50.23
2017-07-04T08:47:28.897Z,49.96
2017-07-04T08:49:58.229Z,49.48
2017-07-04T08:52:27.896Z,49.93
2017-07-04T08:54:58.413Z,49.70
2017-07-04T08:57:27.846Z,50.54
2017-07-04T08:59:57.619Z,50.45
2017-07-04T09:02:27.311Z,51.43
2017-07-04T09:04:56.981Z,51.63
2017-07-04T09:07:26.690Z,53.32
2017-07-04T09:09:56.478Z,53.97
2017-07-04T09:12:26.282Z,52.97
2017-07-04T09:14:56.148Z,53.20
2017-07-04T09:17:25.813Z,54.12
2017-07-04T09:19:55.695Z,52.38
2017-07-04T09:22:25.378Z,51.19
2017-07-04T09:24:55.167Z,51.34
2017-07-04T09:27:25.469Z,50.69
2017-07-04T09:29:55.184Z,50.36
2017-07-04T09:32:24.850Z,51.06
2017-07-04T09:34:54.541Z,50.09
2017-07-04T09:37:24.314Z,50.06
2017-07-04T09:39:53.962Z,50.11
2017-07-04T09:42:24.442Z,50.88
2017-07-04T09:44:54.109Z,51.70
2017-07-04T09:47:23.845Z,50.84
2017-07-04T09:49:54.486Z,50.92
2017-07-04T09:52:24.206Z,50.08
2017-07-04T09:54:53.966Z,50.62
2017-07-04T09:57:23.374Z,51.26
2017-07-04T09:59:53.735Z,51.57
2017-07-04T10:02:23.474Z,51.60
2017-07-04T10:04:53.198Z,50.69
2017-07-04T10:07:22.922Z,50.53
2017-07-04T10:09:52.575Z,49.45
2017-07-04T10:12:22.298Z,48.68
2017-07-04T10:14:51.991Z,47.74
2017-07-04T10:17:22.250Z,48.14
2017-07-04T10:19:51.937Z,47.00
2017-07-04T10:22:21.589Z,46.71
2017-07-04T10:24:51.329Z,46.08
2017-07-04T10:27:21.610Z,46.40
2017-07-04T10:29:51.265Z,45.41
2017-07-04T10:32:21.000Z,45.21
2017-07-04T10:34:50.671Z,44.84
2017-07-04T10:37:20.378Z,44.32
2017-07-04T10:39:50.727Z,44.05
2017-07-04T10:42:20.438Z,44.56
2017-07-04T10:44:50.151Z,44.92
2017-07-04T10:47:19.948Z,45.52
2017-07-04T10:49:49.492Z,46.08
2017-07-04T10:52:19.183Z,46.43
2017-07-04T10:54:49.386Z,48.84
2017-07-04T10:57:19.075Z,51.58
2017-07-04T10:59:48.744Z,51.65
2017-07-04T11:02:18.397Z,50.29
2017-07-04T11:04:48.190Z,50.20
2017-07-04T11:07:25.497Z,50.76
2017-07-04T11:09:59.111Z,48.92
2017-07-04T11:12:28.839Z,49.01
2017-07-04T11:14:58.771Z,48.46
2017-07-04T11:17:28.461Z,48.25
2017-07-04T11:19:59.087Z,47.42
2017-07-04T11:22:28.815Z,47.02
2017-07-04T11:24:58.191Z,46.75
2017-07-04T11:27:28.681Z,44.30
2017-07-04T11:29:58.498Z,46.21
2017-07-04T11:32:28.350Z,46.61
2017-07-04T11:34:58.674Z,47.21
2017-07-04T11:37:28.487Z,47.13
2017-07-04T11:39:57.907Z,47.05
2017-07-04T11:42:28.176Z,46.56
2017-07-04T11:44:57.909Z,46.33
2017-07-04T11:47:27.599Z,46.83
2017-07-04T11:49:58.095Z,46.43
2017-07-04T11:52:27.755Z,45.26
2017-07-04T11:54:57.507Z,44.42
2017-07-04T11:57:27.194Z,44.32
2017-07-04T11:59:56.985Z,44.17
2017-07-04T12:02:26.775Z,44.22
2017-07-04T12:04:56.497Z,44.71
2017-07-04T12:07:26.787Z,44.49
2017-07-04T12:10:04.353Z,45.83
2017-07-04T12:12:34.056Z,45.82
2017-07-04T12:15:04.305Z,44.41
2017-07-04T12:17:34.041Z,44.36
2017-07-04T12:20:03.721Z,44.06
2017-07-04T12:22:33.580Z,44.14
2017-07-04T12:25:03.894Z,44.68
2017-07-04T12:27:33.696Z,44.19
2017-07-04T12:30:03.515Z,43.52
2017-07-04T12:32:33.293Z,43.39
2017-07-04T12:35:03.583Z,42.82
2017-07-04T12:37:32.660Z,42.92
2017-07-04T12:40:02.352Z,43.58
2017-07-04T12:42:32.094Z,43.83
2017-07-04T12:45:01.786Z,43.79
2017-07-04T12:47:31.507Z,43.24
2017-07-04T12:50:01.254Z,43.69
2017-07-04T12:52:31.750Z,43.50
2017-07-04T12:55:01.486Z,44.13
2017-07-04T12:57:31.170Z,44.00
2017-07-04T13:00:00.838Z,43.02
2017-07-04T13:02:30.548Z,43.71
2017-07-04T13:05:00.201Z,44.09
2017-07-04T13:07:30.610Z,44.89
2017-07-04T13:10:00.318Z,45.07
2017-07-04T13:12:29.977Z,44.09
2017-07-04T13:14:59.701Z,45.09
2017-07-04T13:17:29.502Z,44.37
2017-07-04T13:19:59.268Z,44.53
2017-07-04T13:22:29.597Z,45.01
2017-07-04T13:24:59.294Z,44.28
2017-07-04T13:27:29.073Z,44.93
2017-07-04T13:29:58.867Z,45.20
2017-07-04T13:32:28.601Z,45.26
2017-07-04T13:34:58.266Z,46.32
2017-07-04T13:37:28.026Z,45.06
2017-07-04T13:39:57.720Z,44.65
2017-07-04T13:42:27.427Z,45.02
2017-07-04T13:44:57.296Z,44.53
2017-07-04T13:47:27.609Z,44.79
2017-07-04T13:49:57.300Z,44.55
2017-07-04T13:52:27.603Z,44.84
2017-07-04T13:54:58.070Z,45.54
2017-07-04T13:57:27.794Z,45.90
2017-07-04T13:59:57.490Z,45.86
2017-07-04T14:02:27.179Z,46.32
2017-07-04T14:04:56.957Z,45.75
2017-07-04T14:07:26.751Z,44.74
2017-07-04T14:09:57.114Z,44.41
2017-07-04T14:12:26.471Z,44.46
2017-07-04T14:14:56.535Z,43.54
2017-07-04T14:17:26.223Z,44.21
2017-07-04T14:19:56.013Z,45.17
2017-07-04T14:22:25.743Z,44.95
2017-07-04T14:24:55.556Z,44.82
2017-07-04T14:27:25.400Z,44.00
2017-07-04T14:29:55.173Z,43.79
2017-07-04T14:32:24.880Z,43.79
2017-07-04T14:34:54.666Z,44.18
2017-07-04T14:37:24.393Z,44.94
2017-07-04T14:39:54.920Z,45.35
2017-07-04T14:42:24.687Z,45.14
2017-07-04T14:44:54.386Z,45.37
2017-07-04T14:47:24.143Z,45.46
2017-07-04T14:49:54.444Z,44.30
2017-07-04T14:52:24.102Z,44.48
2017-07-04T14:54:54.017Z,44.71
2017-07-04T14:57:23.733Z,44.93
2017-07-04T14:59:54.139Z,44.38
2017-07-04T15:02:23.891Z,44.93
2017-07-04T15:04:53.547Z,44.68
2017-07-04T15:07:23.254Z,45.29
2017-07-04T15:09:52.948Z,44.67
2017-07-04T15:12:22.333Z,45.55
2017-07-04T15:14:52.758Z,44.85
2017-07-04T15:17:22.546Z,45.07
2017-07-04T15:19:51.919Z,46.17
2017-07-04T15:22:21.566Z,46.16
2017-07-04T15:24:51.354Z,46.42
2017-07-04T15:27:21.032Z,45.99
2017-07-04T15:29:50.394Z,45.78
2017-07-04T15:32:20.137Z,45.19
2017-07-04T15:34:49.847Z,44.80
2017-07-04T15:37:19.616Z,45.75
2017-07-04T15:39:49.373Z,45.27
2017-07-04T15:42:19.199Z,45.86
2017-07-04T15:44:49.445Z,46.23
2017-07-04T15:47:19.184Z,46.24
2017-07-04T15:49:48.863Z,45.81
2017-07-04T15:52:18.585Z,45.93
2017-07-04T15:54:48.324Z,45.68
2017-07-04T15:57:18.006Z,45.30
2017-07-04T15:59:47.720Z,45.62
2017-07-04T16:02:17.423Z,44.51
2017-07-04T16:04:47.136Z,44.78
2017-07-04T16:07:16.892Z,44.82
2017-07-04T16:09:46.583Z,44.38
2017-07-04T16:12:16.302Z,45.15
2017-07-04T16:14:46.010Z,44.46
2017-07-04T16:17:15.679Z,44.70
2017-07-04T16:19:45.460Z,44.27
2017-07-04T16:22:15.130Z,44.66
2017-07-04T16:24:44.987Z,44.96
2017-07-04T16:27:14.635Z,44.99
2017-07-04T16:29:44.919Z,44.45
2017-07-04T16:32:15.283Z,45.06
2017-07-04T16:34:45.023Z,44.70
2017-07-04T16:37:14.764Z,44.17
2017-07-04T16:39:44.618Z,44.67
2017-07-04T16:42:15.759Z,44.72
2017-07-04T16:44:45.413Z,44.41
2017-07-04T16:47:15.078Z,44.04
2017-07-04T16:49:44.904Z,43.61
2017-07-04T16:52:22.232Z,43.88
2017-07-04T16:55:01.780Z,44.73
2017-07-04T16:57:40.346Z,44.86
2017-07-04T17:00:23.168Z,44.12
2017-07-04T17:02:57.336Z,44.54
2017-07-04T17:05:26.306Z,44.89
2017-07-04T17:07:54.619Z,44.84
2017-07-04T17:10:24.353Z,45.23
2017-07-04T17:12:53.828Z,45.22
2017-07-04T17:15:23.548Z,44.38
2017-07-04T17:17:53.270Z,44.43
2017-07-04T17:20:25.292Z,44.03
2017-07-04T17:23:02.821Z,44.54
2017-07-04T17:25:40.948Z,44.24
2017-07-04T17:28:12.636Z,44.60
2017-07-04T17:30:42.407Z,44.35
2017-07-04T17:33:12.681Z,44.48
2017-07-04T17:35:43.135Z,45.05
2017-07-04T17:38:12.864Z,44.62
2017-07-04T17:40:42.606Z,44.65
2017-07-04T17:43:15.345Z,45.02
2017-07-04T17:45:45.285Z,45.48
2017-07-04T17:48:15.014Z,45.47
2017-07-04T17:50:44.830Z,45.04
2017-07-04T17:53:15.252Z,45.32
2017-07-04T17:55:45.780Z,46.12
2017-07-04T17:58:16.515Z,45.53
2017-07-04T18:00:47.287Z,45.98
2017-07-04T18:03:18.606Z,45.31
2017-07-04T18:05:56.466Z,44.86
2017-07-04T18:08:27.240Z,45.16
2017-07-04T18:10:57.034Z,45.42
2017-07-04T18:13:26.727Z,45.38
2017-07-04T18:15:56.493Z,45.44
2017-07-04T18:18:26.378Z,45.38
2017-07-04T18:20:56.886Z,46.21
2017-07-04T18:23:26.543Z,45.35
2017-07-04T18:25:56.472Z,45.04
2017-07-04T18:28:26.195Z,44.85
2017-07-04T18:30:55.983Z,45.33
2017-07-04T18:33:25.846Z,45.46
2017-07-04T18:35:55.598Z,45.00
2017-07-04T18:38:24.951Z,45.69
2017-07-04T18:40:54.657Z,45.75
2017-07-04T18:43:24.562Z,45.07
2017-07-04T18:45:57.665Z,45.50
2017-07-04T18:48:28.398Z,45.78
2017-07-04T18:50:58.106Z,46.34
2017-07-04T18:53:28.540Z,46.10
2017-07-04T18:56:06.740Z,46.64
2017-07-04T18:58:48.435Z,46.09
2017-07-04T19:01:29.300Z,46.62
2017-07-04T19:04:12.238Z,46.06
2017-07-04T19:06:53.776Z,46.62
2017-07-04T19:09:34.792Z,46.89
2017-07-04T19:12:14.863Z,48.08
2017-07-04T19:14:54.426Z,46.98
2017-07-04T19:17:33.589Z,47.58
2017-07-04T19:20:15.059Z,47.65
2017-07-04T19:22:56.359Z,46.95
2017-07-04T19:25:39.077Z,47.38
2017-07-04T19:28:21.468Z,48.01
2017-07-04T19:31:01.670Z,47.44
2017-07-04T19:33:41.896Z,49.00
2017-07-04T19:36:22.590Z,49.39
2017-07-04T19:39:05.900Z,49.51
2017-07-04T19:41:46.719Z,49.92
2017-07-04T19:44:28.488Z,51.02
2017-07-04T19:47:06.722Z,50.62
2017-07-04T19:49:44.458Z,51.16
2017-07-04T19:52:24.863Z,51.05
2017-07-04T19:55:06.447Z,51.77
2017-07-04T19:57:46.234Z,52.29
2017-07-04T20:00:28.148Z,53.03
2017-07-04T20:03:07.500Z,53.64
2017-07-04T20:05:47.909Z,54.32
2017-07-04T20:08:29.580Z,54.36
2017-07-04T20:11:11.354Z,54.85
2017-07-04T20:13:44.763Z,54.61
2017-07-04T20:16:17.971Z,55.27
2017-07-04T20:18:48.446Z,55.90
2017-07-04T20:21:19.538Z,56.78
2017-07-04T20:23:51.899Z,56.66
2017-07-04T20:26:22.654Z,56.07
2017-07-04T20:28:55.924Z,55.53
2017-07-04T20:31:31.151Z,55.59
2017-07-04T20:34:04.534Z,56.50
2017-07-04T20:36:34.058Z,57.47
2017-07-04T20:39:03.421Z,57.57
2017-07-04T20:41:33.087Z,57.91
2017-07-04T20:44:02.783Z,59.13
2017-07-04T20:46:32.459Z,59.71
2017-07-04T20:49:02.157Z,60.33
2017-07-04T20:51:31.933Z,59.87
2017-07-04T20:54:01.686Z,60.52
2017-07-04T20:56:31.813Z,60.54
2017-07-04T20:59:01.482Z,60.94
2017-07-04T21:01:31.243Z,61.72
2017-07-04T21:04:00.913Z,62.71
2017-07-04T21:06:30.587Z,62.09
2017-07-04T21:09:00.270Z,62.79
2017-07-04T21:11:30.762Z,62.65
2017-07-04T21:14:00.462Z,63.48
2017-07-04T21:16:30.120Z,63.68
2017-07-04T21:18:59.887Z,63.48
2017-07-04T21:21:29.667Z,62.74
2017-07-04T21:23:59.331Z,62.66
2017-07-04T21:26:29.091Z,62.70
2017-07-04T21:28:59.430Z,62.52
2017-07-04T21:31:29.180Z,63.30
2017-07-04T21:33:58.942Z,63.87
2017-07-04T21:36:29.267Z,64.47
2017-07-04T21:39:00.875Z,64.62
2017-07-04T21:41:31.146Z,64.32
2017-07-04T21:44:00.810Z,65.24
2017-07-04T21:46:30.518Z,65.41
2017-07-04T21:49:00.306Z,65.67
2017-07-04T21:51:29.995Z,65.21
2017-07-04T21:54:00.240Z,65.30
2017-07-04T21:56:30.724Z,65.57
2017-07-04T21:59:00.475Z,66.56
2017-07-04T22:01:30.911Z,66.54
2017-07-04T22:04:00.665Z,66.69
2017-07-04T22:06:30.370Z,66.75
2017-07-04T22:09:00.702Z,66.70
2017-07-04T22:11:30.415Z,67.11
2017-07-04T22:14:00.187Z,67.59
2017-07-04T22:16:29.824Z,67.37
2017-07-04T22:18:59.604Z,67.11
2017-07-04T22:21:29.598Z,66.06
2017-07-04T22:26:27.762Z,67.18
2017-07-04T22:28:57.505Z,67.47
2017-07-04T22:31:27.257Z,67.95
2017-07-04T22:33:57.731Z,67.36
2017-07-04T22:36:27.496Z,66.75
2017-07-04T22:38:57.248Z,66.49
2017-07-04T22:41:26.639Z,65.95
2017-07-04T22:43:57.133Z,66.41
2017-07-04T22:46:26.855Z,66.96
2017-07-04T22:48:56.662Z,66.97
2017-07-04T22:51:26.344Z,67.31
2017-07-04T22:53:56.702Z,67.57
2017-07-04T22:56:26.410Z,68.65
2017-07-04T22:58:56.059Z,68.24
2017-07-04T23:01:25.793Z,67.33
2017-07-04T23:03:56.087Z,68.21
2017-07-04T23:06:25.879Z,68.29
2017-07-04T23:08:55.536Z,68.95
2017-07-04T23:11:26.778Z,69.37
2017-07-04T23:13:56.443Z,69.47
2017-07-04T23:16:26.101Z,69.32
2017-07-04T23:18:55.879Z,67.67
2017-07-04T23:21:31.277Z,67.00
2017-07-04T23:24:00.992Z,67.56
2017-07-04T23:26:30.737Z,68.54
2017-07-04T23:29:00.394Z,68.10
2017-07-04T23:31:30.477Z,68.41
2017-07-04T23:34:00.165Z,67.22
2017-07-04T23:36:30.819Z,67.23
2017-07-04T23:39:00.483Z,67.65
2017-07-04T23:41:30.162Z,67.56
2017-07-04T23:43:59.900Z,67.03
2017-07-04T23:46:29.587Z,67.62
2017-07-04T23:48:59.309Z,67.55
2017-07-04T23:51:29.164Z,66.57
2017-07-04T23:53:58.977Z,67.06
2017-07-04T23:56:28.667Z,67.71
2017-07-04T23:58:58.336Z,67.84
